sensor_id;sensor_type;location;lat;lon;timestamp;pressure;altitude;pressure_sealevel;temperature;humidity
15489;BME280;7846;48.830;9.116;2023-02-17T00:03:38;98700.44;;;13.41;48.46
15489;BME280;7846;48.830;9.116;2023-02-17T00:06:07;98701.13;;;13.43;47.99
15489;BME280;7846;48.830;9.116;2023-02-17T00:08:34;98701.88;;;13.36;48.34
15489;BME280;7846;48.830;9.116;2023-02-17T00:10:59;98692.81;;;13.20;48.59
15489;BME280;7846;48.830;9.116;2023-02-17T00:13:25;98690.69;;;13.94;47.05
15489;BME280;7846;48.830;9.116;2023-02-17T00:15:50;98694.88;;;14.04;47.14
15489;BME280;7846;48.830;9.116;2023-02-17T00:18:15;98690.38;;;13.97;46.90
15489;BME280;7846;48.830;9.116;2023-02-17T00:20:41;98683.00;;;13.83;47.21
15489;BME280;7846;48.830;9.116;2023-02-17T00:23:06;98681.91;;;13.93;46.81
15489;BME280;7846;48.830;9.116;2023-02-17T00:25:33;98682.56;;;14.21;46.68
15489;BME280;7846;48.830;9.116;2023-02-17T00:27:58;98682.34;;;13.80;47.29
15489;BME280;7846;48.830;9.116;2023-02-17T00:30:23;98680.16;;;14.02;47.14
15489;BME280;7846;48.830;9.116;2023-02-17T00:32:49;98672.28;;;13.84;47.18
15489;BME280;7846;48.830;9.116;2023-02-17T00:35:14;98675.13;;;13.39;48.32
15489;BME280;7846;48.830;9.116;2023-02-17T00:37:40;98671.50;;;13.92;46.86
15489;BME280;7846;48.830;9.116;2023-02-17T00:40:05;98677.59;;;13.58;47.33
15489;BME280;7846;48.830;9.116;2023-02-17T00:42:31;98675.03;;;13.74;47.75
15489;BME280;7846;48.830;9.116;2023-02-17T00:44:56;98672.13;;;13.60;47.81
15489;BME280;7846;48.830;9.116;2023-02-17T00:47:22;98667.13;;;12.95;48.92
15489;BME280;7846;48.830;9.116;2023-02-17T00:49:48;98673.47;;;13.02;48.58
15489;BME280;7846;48.830;9.116;2023-02-17T00:52:14;98674.00;;;12.88;48.67
15489;BME280;7846;48.830;9.116;2023-02-17T00:54:39;98670.44;;;12.97;49.07
15489;BME280;7846;48.830;9.116;2023-02-17T00:57:06;98680.25;;;13.04;48.69
15489;BME280;7846;48.830;9.116;2023-02-17T00:59:31;98683.22;;;12.83;48.38
15489;BME280;7846;48.830;9.116;2023-02-17T01:01:56;98681.94;;;13.05;48.52
15489;BME280;7846;48.830;9.116;2023-02-17T01:04:22;98670.09;;;13.27;48.50
15489;BME280;7846;48.830;9.116;2023-02-17T01:06:47;98680.84;;;13.78;47.41
15489;BME280;7846;48.830;9.116;2023-02-17T01:09:13;98683.69;;;13.85;46.96
15489;BME280;7846;48.830;9.116;2023-02-17T01:11:39;98679.59;;;13.90;47.33
15489;BME280;7846;48.830;9.116;2023-02-17T01:14:05;98673.41;;;13.82;47.29
15489;BME280;7846;48.830;9.116;2023-02-17T01:16:35;98678.16;;;14.04;46.85
15489;BME280;7846;48.830;9.116;2023-02-17T01:19:05;98682.13;;;14.00;46.57
15489;BME280;7846;48.830;9.116;2023-02-17T01:21:31;98676.09;;;13.90;46.87
15489;BME280;7846;48.830;9.116;2023-02-17T01:23:59;98666.56;;;13.97;47.29
15489;BME280;7846;48.830;9.116;2023-02-17T01:26:26;98670.94;;;14.14;46.98
15489;BME280;7846;48.830;9.116;2023-02-17T01:28:53;98664.31;;;14.10;46.66
15489;BME280;7846;48.830;9.116;2023-02-17T01:31:19;98662.25;;;13.96;47.51
15489;BME280;7846;48.830;9.116;2023-02-17T01:33:45;98665.63;;;14.06;47.03
15489;BME280;7846;48.830;9.116;2023-02-17T01:36:13;98667.41;;;14.40;46.33
15489;BME280;7846;48.830;9.116;2023-02-17T01:38:39;98663.94;;;13.27;48.34
15489;BME280;7846;48.830;9.116;2023-02-17T01:41:06;98655.50;;;13.23;48.16
15489;BME280;7846;48.830;9.116;2023-02-17T01:43:31;98652.63;;;13.17;48.74
15489;BME280;7846;48.830;9.116;2023-02-17T01:45:59;98652.81;;;13.41;49.03
15489;BME280;7846;48.830;9.116;2023-02-17T01:48:28;98643.53;;;13.37;48.58
15489;BME280;7846;48.830;9.116;2023-02-17T01:51:00;98639.03;;;13.29;48.70
15489;BME280;7846;48.830;9.116;2023-02-17T01:53:32;98629.66;;;13.61;48.01
15489;BME280;7846;48.830;9.116;2023-02-17T01:56:01;98637.69;;;13.77;47.55
15489;BME280;7846;48.830;9.116;2023-02-17T01:58:27;98638.19;;;14.23;46.66
15489;BME280;7846;48.830;9.116;2023-02-17T02:00:57;98638.38;;;13.79;47.58
15489;BME280;7846;48.830;9.116;2023-02-17T02:03:26;98646.88;;;13.21;48.68
15489;BME280;7846;48.830;9.116;2023-02-17T02:05:52;98649.91;;;13.26;49.01
15489;BME280;7846;48.830;9.116;2023-02-17T02:08:17;98637.91;;;13.32;48.27
15489;BME280;7846;48.830;9.116;2023-02-17T02:10:43;98628.28;;;13.57;48.12
15489;BME280;7846;48.830;9.116;2023-02-17T02:13:09;98635.34;;;13.48;47.98
15489;BME280;7846;48.830;9.116;2023-02-17T02:15:58;98631.00;;;13.39;48.24
15489;BME280;7846;48.830;9.116;2023-02-17T02:18:44;98633.31;;;13.94;47.63
15489;BME280;7846;48.830;9.116;2023-02-17T02:21:39;98631.50;;;13.95;47.84
15489;BME280;7846;48.830;9.116;2023-02-17T02:24:32;98625.94;;;14.14;47.04
15489;BME280;7846;48.830;9.116;2023-02-17T02:30:00;98623.50;;;13.87;46.62
15489;BME280;7846;48.830;9.116;2023-02-17T02:35:30;98624.16;;;13.54;47.88
15489;BME280;7846;48.830;9.116;2023-02-17T02:38:17;98620.16;;;13.50;48.25
15489;BME280;7846;48.830;9.116;2023-02-17T02:40:50;98613.47;;;13.98;47.83
15489;BME280;7846;48.830;9.116;2023-02-17T02:43:17;98617.59;;;14.01;46.88
15489;BME280;7846;48.830;9.116;2023-02-17T02:45:42;98613.78;;;13.61;47.30
15489;BME280;7846;48.830;9.116;2023-02-17T02:48:08;98609.59;;;13.50;47.44
15489;BME280;7846;48.830;9.116;2023-02-17T02:51:08;98610.00;;;13.98;47.61
15489;BME280;7846;48.830;9.116;2023-02-17T02:56:18;98604.06;;;13.70;47.17
15489;BME280;7846;48.830;9.116;2023-02-17T02:58:57;98600.09;;;13.66;47.71
15489;BME280;7846;48.830;9.116;2023-02-17T03:01:45;98601.22;;;13.63;47.75
15489;BME280;7846;48.830;9.116;2023-02-17T03:04:28;98600.94;;;13.74;47.57
15489;BME280;7846;48.830;9.116;2023-02-17T03:07:04;98599.94;;;14.10;47.17
15489;BME280;7846;48.830;9.116;2023-02-17T03:09:31;98593.78;;;13.67;47.72
15489;BME280;7846;48.830;9.116;2023-02-17T03:11:57;98590.44;;;13.56;47.71
15489;BME280;7846;48.830;9.116;2023-02-17T03:14:23;98584.75;;;13.43;48.17
15489;BME280;7846;48.830;9.116;2023-02-17T03:16:50;98588.31;;;13.60;47.84
15489;BME280;7846;48.830;9.116;2023-02-17T03:19:17;98580.84;;;13.55;48.05
15489;BME280;7846;48.830;9.116;2023-02-17T03:21:52;98585.94;;;13.49;48.24
15489;BME280;7846;48.830;9.116;2023-02-17T03:24:21;98583.84;;;13.35;48.28
15489;BME280;7846;48.830;9.116;2023-02-17T03:26:46;98591.59;;;13.54;48.07
15489;BME280;7846;48.830;9.116;2023-02-17T03:29:11;98600.91;;;13.66;47.77
15489;BME280;7846;48.830;9.116;2023-02-17T03:31:38;98599.53;;;13.88;47.55
15489;BME280;7846;48.830;9.116;2023-02-17T03:34:03;98601.09;;;13.65;48.05
15489;BME280;7846;48.830;9.116;2023-02-17T03:36:29;98599.56;;;13.62;48.17
15489;BME280;7846;48.830;9.116;2023-02-17T03:38:56;98600.50;;;13.53;48.23
15489;BME280;7846;48.830;9.116;2023-02-17T03:41:21;98593.78;;;13.67;48.69
15489;BME280;7846;48.830;9.116;2023-02-17T03:43:46;98601.28;;;13.45;48.79
15489;BME280;7846;48.830;9.116;2023-02-17T03:46:14;98601.66;;;13.50;48.66
15489;BME280;7846;48.830;9.116;2023-02-17T03:48:40;98596.72;;;13.29;49.37
15489;BME280;7846;48.830;9.116;2023-02-17T03:51:15;98589.78;;;13.28;49.49
15489;BME280;7846;48.830;9.116;2023-02-17T03:53:41;98594.16;;;13.46;49.45
15489;BME280;7846;48.830;9.116;2023-02-17T03:56:08;98598.91;;;13.34;49.76
15489;BME280;7846;48.830;9.116;2023-02-17T03:58:34;98588.78;;;13.29;49.71
15489;BME280;7846;48.830;9.116;2023-02-17T04:01:00;98593.25;;;13.29;49.92
15489;BME280;7846;48.830;9.116;2023-02-17T04:03:25;98597.06;;;13.35;49.75
15489;BME280;7846;48.830;9.116;2023-02-17T04:05:51;98602.00;;;13.90;48.88
15489;BME280;7846;48.830;9.116;2023-02-17T04:08:19;98606.41;;;13.21;49.88
15489;BME280;7846;48.830;9.116;2023-02-17T04:10:44;98601.41;;;13.18;50.00
15489;BME280;7846;48.830;9.116;2023-02-17T04:13:10;98609.63;;;13.32;49.83
15489;BME280;7846;48.830;9.116;2023-02-17T04:15:35;98595.44;;;13.16;50.07
15489;BME280;7846;48.830;9.116;2023-02-17T04:18:01;98603.88;;;13.19;50.54
15489;BME280;7846;48.830;9.116;2023-02-17T04:20:26;98607.06;;;13.23;50.70
15489;BME280;7846;48.830;9.116;2023-02-17T04:22:51;98606.13;;;13.50;50.33
15489;BME280;7846;48.830;9.116;2023-02-17T04:25:17;98608.59;;;13.25;50.78
15489;BME280;7846;48.830;9.116;2023-02-17T04:27:42;98603.00;;;13.89;50.16
15489;BME280;7846;48.830;9.116;2023-02-17T04:30:08;98605.66;;;13.89;50.39
15489;BME280;7846;48.830;9.116;2023-02-17T04:32:33;98603.63;;;13.48;51.19
15489;BME280;7846;48.830;9.116;2023-02-17T04:35:00;98599.47;;;13.46;51.34
15489;BME280;7846;48.830;9.116;2023-02-17T04:37:25;98593.34;;;13.45;51.53
15489;BME280;7846;48.830;9.116;2023-02-17T04:39:51;98597.16;;;13.43;51.72
15489;BME280;7846;48.830;9.116;2023-02-17T04:42:18;98592.25;;;13.56;50.97
15489;BME280;7846;48.830;9.116;2023-02-17T04:44:43;98591.25;;;13.31;51.68
15489;BME280;7846;48.830;9.116;2023-02-17T04:47:09;98582.41;;;13.40;51.85
15489;BME280;7846;48.830;9.116;2023-02-17T04:49:34;98585.78;;;13.24;52.08
15489;BME280;7846;48.830;9.116;2023-02-17T04:52:01;98582.69;;;13.11;52.99
15489;BME280;7846;48.830;9.116;2023-02-17T04:54:26;98585.06;;;13.22;52.80
15489;BME280;7846;48.830;9.116;2023-02-17T04:56:52;98598.19;;;13.06;53.31
15489;BME280;7846;48.830;9.116;2023-02-17T04:59:18;98593.13;;;13.13;53.69
15489;BME280;7846;48.830;9.116;2023-02-17T05:01:43;98583.19;;;13.59;52.45
15489;BME280;7846;48.830;9.116;2023-02-17T05:04:08;98590.38;;;13.48;52.64
15489;BME280;7846;48.830;9.116;2023-02-17T05:06:35;98582.09;;;13.43;53.23
15489;BME280;7846;48.830;9.116;2023-02-17T05:09:00;98589.63;;;13.12;53.51
15489;BME280;7846;48.830;9.116;2023-02-17T05:11:26;98582.69;;;13.11;53.25
15489;BME280;7846;48.830;9.116;2023-02-17T05:13:52;98584.66;;;13.09;53.34
15489;BME280;7846;48.830;9.116;2023-02-17T05:16:18;98580.34;;;13.26;53.40
15489;BME280;7846;48.830;9.116;2023-02-17T05:18:43;98587.06;;;13.20;53.33
15489;BME280;7846;48.830;9.116;2023-02-17T05:21:10;98584.81;;;13.07;54.03
15489;BME280;7846;48.830;9.116;2023-02-17T05:23:35;98581.47;;;13.23;53.84
15489;BME280;7846;48.830;9.116;2023-02-17T05:26:06;98572.47;;;13.16;53.79
15489;BME280;7846;48.830;9.116;2023-02-17T05:28:31;98578.81;;;13.23;54.18
15489;BME280;7846;48.830;9.116;2023-02-17T05:30:57;98589.09;;;13.08;54.63
15489;BME280;7846;48.830;9.116;2023-02-17T05:33:22;98579.78;;;13.22;54.21
15489;BME280;7846;48.830;9.116;2023-02-17T05:35:47;98596.63;;;13.39;53.70
15489;BME280;7846;48.830;9.116;2023-02-17T05:38:13;98589.53;;;13.40;53.65
15489;BME280;7846;48.830;9.116;2023-02-17T05:40:38;98593.25;;;13.11;54.40
15489;BME280;7846;48.830;9.116;2023-02-17T05:43:03;98596.50;;;13.05;54.92
15489;BME280;7846;48.830;9.116;2023-02-17T05:45:30;98588.31;;;13.16;55.35
15489;BME280;7846;48.830;9.116;2023-02-17T05:47:55;98600.94;;;13.22;55.47
15489;BME280;7846;48.830;9.116;2023-02-17T05:50:20;98598.59;;;13.19;55.90
15489;BME280;7846;48.830;9.116;2023-02-17T05:52:47;98597.25;;;13.15;55.98
15489;BME280;7846;48.830;9.116;2023-02-17T05:55:13;98607.53;;;13.00;56.52
15489;BME280;7846;48.830;9.116;2023-02-17T05:57:39;98608.28;;;13.11;56.52
15489;BME280;7846;48.830;9.116;2023-02-17T06:00:04;98611.81;;;13.19;56.38
15489;BME280;7846;48.830;9.116;2023-02-17T06:02:30;98606.56;;;13.01;57.07
15489;BME280;7846;48.830;9.116;2023-02-17T06:04:56;98613.75;;;13.09;57.56
15489;BME280;7846;48.830;9.116;2023-02-17T06:07:23;98611.41;;;13.06;57.72
15489;BME280;7846;48.830;9.116;2023-02-17T06:09:48;98615.09;;;13.13;57.84
15489;BME280;7846;48.830;9.116;2023-02-17T06:12:14;98615.00;;;13.05;58.03
15489;BME280;7846;48.830;9.116;2023-02-17T06:14:40;98609.69;;;13.23;57.79
15489;BME280;7846;48.830;9.116;2023-02-17T06:17:05;98611.53;;;13.04;58.12
15489;BME280;7846;48.830;9.116;2023-02-17T06:19:30;98618.22;;;13.35;58.74
15489;BME280;7846;48.830;9.116;2023-02-17T06:21:56;98622.03;;;13.58;57.43
15489;BME280;7846;48.830;9.116;2023-02-17T06:24:23;98632.66;;;13.22;58.44
15489;BME280;7846;48.830;9.116;2023-02-17T06:26:48;98624.16;;;13.28;57.93
15489;BME280;7846;48.830;9.116;2023-02-17T06:29:14;98624.69;;;13.14;58.46
15489;BME280;7846;48.830;9.116;2023-02-17T06:31:39;98632.69;;;13.04;59.18
15489;BME280;7846;48.830;9.116;2023-02-17T06:34:05;98628.75;;;13.52;58.63
15489;BME280;7846;48.830;9.116;2023-02-17T06:36:30;98629.25;;;13.82;57.65
15489;BME280;7846;48.830;9.116;2023-02-17T06:38:57;98620.97;;;13.77;57.35
15489;BME280;7846;48.830;9.116;2023-02-17T06:41:24;98620.69;;;13.10;58.92
15489;BME280;7846;48.830;9.116;2023-02-17T06:43:49;98623.47;;;13.08;59.20
15489;BME280;7846;48.830;9.116;2023-02-17T06:46:15;98623.09;;;13.03;59.50
15489;BME280;7846;48.830;9.116;2023-02-17T06:48:41;98627.53;;;13.21;59.23
15489;BME280;7846;48.830;9.116;2023-02-17T06:51:06;98624.50;;;13.34;59.10
15489;BME280;7846;48.830;9.116;2023-02-17T06:53:32;98634.44;;;13.31;59.01
15489;BME280;7846;48.830;9.116;2023-02-17T06:55:57;98635.56;;;13.29;58.96
15489;BME280;7846;48.830;9.116;2023-02-17T06:58:22;98642.13;;;13.25;59.77
15489;BME280;7846;48.830;9.116;2023-02-17T07:00:49;98642.19;;;13.15;59.12
15489;BME280;7846;48.830;9.116;2023-02-17T07:03:16;98644.63;;;13.26;59.57
15489;BME280;7846;48.830;9.116;2023-02-17T07:05:41;98647.69;;;13.40;59.04
15489;BME280;7846;48.830;9.116;2023-02-17T07:08:06;98649.09;;;13.26;59.07
15489;BME280;7846;48.830;9.116;2023-02-17T07:10:32;98653.97;;;13.39;59.33
15489;BME280;7846;48.830;9.116;2023-02-17T07:12:57;98652.59;;;13.35;59.43
15489;BME280;7846;48.830;9.116;2023-02-17T07:15:23;98642.97;;;13.25;59.26
15489;BME280;7846;48.830;9.116;2023-02-17T07:17:48;98652.94;;;13.31;59.70
15489;BME280;7846;48.830;9.116;2023-02-17T07:20:14;98650.34;;;13.22;59.55
15489;BME280;7846;48.830;9.116;2023-02-17T07:22:39;98652.47;;;13.36;59.20
15489;BME280;7846;48.830;9.116;2023-02-17T07:25:05;98658.06;;;13.33;59.36
15489;BME280;7846;48.830;9.116;2023-02-17T07:27:31;98655.44;;;13.59;58.34
15489;BME280;7846;48.830;9.116;2023-02-17T07:29:57;98663.56;;;13.40;59.08
15489;BME280;7846;48.830;9.116;2023-02-17T07:32:22;98669.56;;;14.02;58.08
15489;BME280;7846;48.830;9.116;2023-02-17T07:34:47;98657.91;;;13.35;59.26
15489;BME280;7846;48.830;9.116;2023-02-17T07:37:13;98657.97;;;13.43;58.87
15489;BME280;7846;48.830;9.116;2023-02-17T07:39:38;98662.78;;;13.47;59.48
15489;BME280;7846;48.830;9.116;2023-02-17T07:42:04;98665.78;;;13.78;58.78
15489;BME280;7846;48.830;9.116;2023-02-17T07:44:31;98657.97;;;13.43;59.67
15489;BME280;7846;48.830;9.116;2023-02-17T07:46:56;98669.91;;;13.47;59.46
15489;BME280;7846;48.830;9.116;2023-02-17T07:49:22;98673.31;;;14.25;57.83
15489;BME280;7846;48.830;9.116;2023-02-17T07:51:47;98679.06;;;13.35;60.18
15489;BME280;7846;48.830;9.116;2023-02-17T07:54:13;98675.28;;;13.63;59.58
15489;BME280;7846;48.830;9.116;2023-02-17T07:56:38;98665.63;;;13.28;60.10
15489;BME280;7846;48.830;9.116;2023-02-17T07:59:08;98677.06;;;13.54;60.35
15489;BME280;7846;48.830;9.116;2023-02-17T08:01:35;98661.75;;;13.22;60.69
15489;BME280;7846;48.830;9.116;2023-02-17T08:04:00;98674.22;;;13.30;60.85
15489;BME280;7846;48.830;9.116;2023-02-17T08:06:26;98675.88;;;13.31;60.73
15489;BME280;7846;48.830;9.116;2023-02-17T08:08:52;98668.31;;;13.80;59.96
15489;BME280;7846;48.830;9.116;2023-02-17T08:11:38;98665.69;;;14.22;58.60
15489;BME280;7846;48.830;9.116;2023-02-17T08:14:24;98671.47;;;14.18;58.92
15489;BME280;7846;48.830;9.116;2023-02-17T08:16:51;98669.44;;;13.77;59.97
15489;BME280;7846;48.830;9.116;2023-02-17T08:19:18;98673.84;;;13.95;59.96
15489;BME280;7846;48.830;9.116;2023-02-17T08:21:43;98679.19;;;14.11;59.10
15489;BME280;7846;48.830;9.116;2023-02-17T08:24:09;98686.16;;;14.12;59.98
15489;BME280;7846;48.830;9.116;2023-02-17T08:26:35;98679.97;;;14.38;58.86
15489;BME280;7846;48.830;9.116;2023-02-17T08:29:00;98673.78;;;13.87;60.21
15489;BME280;7846;48.830;9.116;2023-02-17T08:31:28;98673.06;;;14.02;60.04
15489;BME280;7846;48.830;9.116;2023-02-17T08:33:54;98687.00;;;13.61;61.28
15489;BME280;7846;48.830;9.116;2023-02-17T08:36:21;98683.69;;;13.85;61.20
15489;BME280;7846;48.830;9.116;2023-02-17T08:38:52;98678.66;;;13.99;60.60
15489;BME280;7846;48.830;9.116;2023-02-17T08:41:32;98687.22;;;13.93;60.96
15489;BME280;7846;48.830;9.116;2023-02-17T08:43:59;98682.19;;;14.16;60.60
15489;BME280;7846;48.830;9.116;2023-02-17T08:46:26;98675.78;;;14.27;59.87
15489;BME280;7846;48.830;9.116;2023-02-17T08:48:51;98668.34;;;14.65;59.59
15489;BME280;7846;48.830;9.116;2023-02-17T08:51:20;98679.91;;;14.21;60.36
15489;BME280;7846;48.830;9.116;2023-02-17T08:53:49;98674.34;;;13.98;61.11
15489;BME280;7846;48.830;9.116;2023-02-17T08:56:14;98678.69;;;14.08;60.93
15489;BME280;7846;48.830;9.116;2023-02-17T08:58:40;98667.63;;;13.78;62.03
15489;BME280;7846;48.830;9.116;2023-02-17T09:01:05;98676.06;;;13.82;62.30
15489;BME280;7846;48.830;9.116;2023-02-17T09:03:36;98670.59;;;14.09;61.65
15489;BME280;7846;48.830;9.116;2023-02-17T09:06:05;98674.91;;;13.76;62.03
15489;BME280;7846;48.830;9.116;2023-02-17T09:08:31;98666.44;;;13.72;62.42
15489;BME280;7846;48.830;9.116;2023-02-17T09:10:57;98662.44;;;14.37;60.90
15489;BME280;7846;48.830;9.116;2023-02-17T09:13:22;98665.88;;;14.29;60.44
15489;BME280;7846;48.830;9.116;2023-02-17T09:15:47;98662.78;;;13.73;62.65
15489;BME280;7846;48.830;9.116;2023-02-17T09:18:14;98670.69;;;13.91;62.06
15489;BME280;7846;48.830;9.116;2023-02-17T09:20:40;98668.41;;;14.04;61.99
15489;BME280;7846;48.830;9.116;2023-02-17T09:23:06;98662.00;;;14.15;62.04
15489;BME280;7846;48.830;9.116;2023-02-17T09:25:31;98673.56;;;14.06;62.11
15489;BME280;7846;48.830;9.116;2023-02-17T09:27:57;98690.00;;;14.18;61.76
15489;BME280;7846;48.830;9.116;2023-02-17T09:30:22;98670.63;;;14.17;62.16
15489;BME280;7846;48.830;9.116;2023-02-17T09:32:48;98678.47;;;14.94;60.18
15489;BME280;7846;48.830;9.116;2023-02-17T09:35:14;98688.91;;;14.37;61.70
15489;BME280;7846;48.830;9.116;2023-02-17T09:37:40;98685.31;;;15.37;59.65
15489;BME280;7846;48.830;9.116;2023-02-17T09:40:08;98690.94;;;15.10;59.79
15489;BME280;7846;48.830;9.116;2023-02-17T09:42:38;98689.13;;;15.18;59.37
15489;BME280;7846;48.830;9.116;2023-02-17T09:45:08;98685.97;;;15.56;58.93
15489;BME280;7846;48.830;9.116;2023-02-17T09:47:40;98704.38;;;15.33;59.92
15489;BME280;7846;48.830;9.116;2023-02-17T09:50:13;98693.47;;;15.68;58.87
15489;BME280;7846;48.830;9.116;2023-02-17T09:52:56;98704.84;;;15.04;59.88
15489;BME280;7846;48.830;9.116;2023-02-17T09:55:49;98708.19;;;15.79;58.61
15489;BME280;7846;48.830;9.116;2023-02-17T09:58:23;98720.13;;;15.18;59.98
15489;BME280;7846;48.830;9.116;2023-02-17T10:01:03;98699.06;;;15.41;59.64
15489;BME280;7846;48.830;9.116;2023-02-17T10:03:38;98701.06;;;15.47;59.83
15489;BME280;7846;48.830;9.116;2023-02-17T10:08:49;98720.13;;;15.42;60.07
15489;BME280;7846;48.830;9.116;2023-02-17T10:13:50;98689.63;;;15.46;60.01
15489;BME280;7846;48.830;9.116;2023-02-17T10:16:27;98691.44;;;15.54;59.96
15489;BME280;7846;48.830;9.116;2023-02-17T10:19:00;98696.69;;;16.03;58.90
15489;BME280;7846;48.830;9.116;2023-02-17T10:21:37;98694.72;;;15.89;59.40
15489;BME280;7846;48.830;9.116;2023-02-17T10:24:04;98692.63;;;15.76;59.04
15489;BME280;7846;48.830;9.116;2023-02-17T10:26:46;98694.63;;;16.21;58.44
15489;BME280;7846;48.830;9.116;2023-02-17T10:32:18;98692.06;;;16.76;57.16
15489;BME280;7846;48.830;9.116;2023-02-17T10:35:12;98688.13;;;16.63;57.25
15489;BME280;7846;48.830;9.116;2023-02-17T10:37:59;98698.25;;;16.76;56.89
15489;BME280;7846;48.830;9.116;2023-02-17T10:40:28;98695.69;;;16.83;56.77
15489;BME280;7846;48.830;9.116;2023-02-17T10:42:56;98683.38;;;17.36;55.15
15489;BME280;7846;48.830;9.116;2023-02-17T10:45:39;98686.09;;;17.65;54.81
15489;BME280;7846;48.830;9.116;2023-02-17T10:48:15;98672.88;;;17.34;55.31
15489;BME280;7846;48.830;9.116;2023-02-17T10:50:43;98688.78;;;17.20;56.35
15489;BME280;7846;48.830;9.116;2023-02-17T10:58:27;98677.97;;;17.82;54.99
15489;BME280;7846;48.830;9.116;2023-02-17T11:00:55;98669.06;;;17.52;55.24
15489;BME280;7846;48.830;9.116;2023-02-17T11:03:28;98669.97;;;18.11;53.99
15489;BME280;7846;48.830;9.116;2023-02-17T11:06:02;98670.31;;;18.38;53.70
15489;BME280;7846;48.830;9.116;2023-02-17T11:08:31;98669.97;;;18.26;54.37
15489;BME280;7846;48.830;9.116;2023-02-17T11:11:06;98664.44;;;18.28;54.36
15489;BME280;7846;48.830;9.116;2023-02-17T11:13:41;98656.13;;;18.52;53.50
15489;BME280;7846;48.830;9.116;2023-02-17T11:16:21;98663.09;;;18.17;53.95
15489;BME280;7846;48.830;9.116;2023-02-17T11:18:49;98654.44;;;17.85;55.09
15489;BME280;7846;48.830;9.116;2023-02-17T11:21:14;98648.41;;;17.92;54.80
15489;BME280;7846;48.830;9.116;2023-02-17T11:24:09;98640.38;;;17.62;55.48
15489;BME280;7846;48.830;9.116;2023-02-17T11:26:35;98642.28;;;17.68;55.69
15489;BME280;7846;48.830;9.116;2023-02-17T11:29:15;98652.41;;;17.73;55.80
15489;BME280;7846;48.830;9.116;2023-02-17T11:31:52;98658.44;;;17.66;55.68
15489;BME280;7846;48.830;9.116;2023-02-17T11:34:24;98644.75;;;17.55;56.62
15489;BME280;7846;48.830;9.116;2023-02-17T11:39:38;98648.31;;;17.47;57.47
15489;BME280;7846;48.830;9.116;2023-02-17T11:42:20;98650.16;;;17.47;57.10
15489;BME280;7846;48.830;9.116;2023-02-17T11:44:46;98653.44;;;17.34;56.98
15489;BME280;7846;48.830;9.116;2023-02-17T11:47:32;98645.41;;;17.72;56.68
15489;BME280;7846;48.830;9.116;2023-02-17T11:50:29;98647.38;;;17.78;56.48
15489;BME280;7846;48.830;9.116;2023-02-17T11:53:13;98645.31;;;17.50;56.40
15489;BME280;7846;48.830;9.116;2023-02-17T11:56:08;98649.38;;;17.76;56.42
15489;BME280;7846;48.830;9.116;2023-02-17T11:58:49;98644.56;;;17.56;56.63
15489;BME280;7846;48.830;9.116;2023-02-17T12:01:50;98651.06;;;17.54;56.60
15489;BME280;7846;48.830;9.116;2023-02-17T12:04:27;98645.91;;;17.37;56.90
15489;BME280;7846;48.830;9.116;2023-02-17T12:07:21;98677.69;;;17.54;56.74
15489;BME280;7846;48.830;9.116;2023-02-17T12:13:25;98652.41;;;17.73;55.93
15489;BME280;7846;48.830;9.116;2023-02-17T12:30:17;98651.78;;;17.85;56.17
15489;BME280;7846;48.830;9.116;2023-02-17T12:32:58;98647.94;;;17.88;55.32
15489;BME280;7846;48.830;9.116;2023-02-17T12:35:54;98644.53;;;17.94;55.63
15489;BME280;7846;48.830;9.116;2023-02-17T12:38:35;98658.22;;;18.21;55.17
15489;BME280;7846;48.830;9.116;2023-02-17T12:41:07;98642.69;;;18.09;55.19
15489;BME280;7846;48.830;9.116;2023-02-17T12:43:49;98644.97;;;17.98;55.23
15489;BME280;7846;48.830;9.116;2023-02-17T12:46:39;98642.28;;;18.27;55.42
15489;BME280;7846;48.830;9.116;2023-02-17T12:49:22;98639.66;;;18.12;55.39
15489;BME280;7846;48.830;9.116;2023-02-17T12:51:55;98641.84;;;17.94;56.18
15489;BME280;7846;48.830;9.116;2023-02-17T12:54:51;98645.34;;;17.95;55.70
15489;BME280;7846;48.830;9.116;2023-02-17T12:57:24;98636.03;;;18.35;55.15
15489;BME280;7846;48.830;9.116;2023-02-17T12:59:52;98632.06;;;17.80;56.40
15489;BME280;7846;48.830;9.116;2023-02-17T13:02:20;98639.75;;;18.04;55.71
15489;BME280;7846;48.830;9.116;2023-02-17T13:04:51;98632.31;;;17.85;56.39
15489;BME280;7846;48.830;9.116;2023-02-17T13:07:44;98634.31;;;18.12;55.74
15489;BME280;7846;48.830;9.116;2023-02-17T13:10:31;98632.31;;;18.14;55.59
15489;BME280;7846;48.830;9.116;2023-02-17T13:16:03;98641.22;;;18.22;55.63
15489;BME280;7846;48.830;9.116;2023-02-17T13:18:32;98633.69;;;17.81;56.55
15489;BME280;7846;48.830;9.116;2023-02-17T13:21:13;98636.47;;;18.02;55.98
15489;BME280;7846;48.830;9.116;2023-02-17T13:23:41;98636.25;;;18.19;55.86
15489;BME280;7846;48.830;9.116;2023-02-17T13:26:24;98622.75;;;18.56;55.09
15489;BME280;7846;48.830;9.116;2023-02-17T13:28:52;98622.09;;;18.18;55.76
15489;BME280;7846;48.830;9.116;2023-02-17T13:31:21;98630.22;;;18.10;55.64
15489;BME280;7846;48.830;9.116;2023-02-17T13:33:55;98617.19;;;18.36;55.40
15489;BME280;7846;48.830;9.116;2023-02-17T13:38:59;98630.38;;;18.08;55.91
15489;BME280;7846;48.830;9.116;2023-02-17T13:41:27;98622.81;;;18.27;55.84
15489;BME280;7846;48.830;9.116;2023-02-17T13:43:53;98617.66;;;18.40;55.41
15489;BME280;7846;48.830;9.116;2023-02-17T13:46:25;98621.56;;;19.23;54.15
15489;BME280;7846;48.830;9.116;2023-02-17T13:48:59;98620.38;;;19.04;53.93
15489;BME280;7846;48.830;9.116;2023-02-17T13:51:27;98615.91;;;19.33;53.70
15489;BME280;7846;48.830;9.116;2023-02-17T13:53:53;98615.75;;;19.41;53.30
15489;BME280;7846;48.830;9.116;2023-02-17T13:56:38;98612.22;;;19.34;53.67
15489;BME280;7846;48.830;9.116;2023-02-17T13:59:13;98606.34;;;18.96;54.78
15489;BME280;7846;48.830;9.116;2023-02-17T14:01:43;98612.34;;;18.61;55.34
15489;BME280;7846;48.830;9.116;2023-02-17T14:06:45;98599.28;;;18.67;55.33
15489;BME280;7846;48.830;9.116;2023-02-17T14:09:22;98602.56;;;18.47;55.54
15489;BME280;7846;48.830;9.116;2023-02-17T14:11:50;98600.47;;;18.64;55.20
15489;BME280;7846;48.830;9.116;2023-02-17T14:14:15;98596.31;;;19.82;52.48
15489;BME280;7846;48.830;9.116;2023-02-17T14:16:42;98604.13;;;21.06;50.16